Time,TemperatureF,DewpointF,PressureIn,WindDirection,WindDirectionDegrees,WindSpeedMPH,WindSpeedGustMPH,Humidity,HourlyPrecipIn,Conditions,Clouds,dailyrainin,SoftwareType,DateUTC
2013-04-06 00:03:00,39.0,21.0,29.97,North,355,3.0,9.0,48,0.00,,,0.00,,2013-04-06 04:03:00,
2013-04-06 00:14:00,39.0,21.0,29.97,North,355,3.0,9.0,48,0.00,,,0.00,,2013-04-06 04:14:00,
2013-04-06 00:23:00,39.0,21.0,29.97,North,355,3.0,9.0,48,0.00,,,0.00,,2013-04-06 04:23:00,
2013-04-06 00:33:00,39.0,22.0,29.98,NNW,345,2.0,6.0,50,0.00,,,0.00,,2013-04-06 04:33:00,
2013-04-06 00:43:00,39.0,22.0,29.98,NNW,345,2.0,6.0,50,0.00,,,0.00,,2013-04-06 04:43:00,
2013-04-06 00:53:00,39.0,22.0,29.98,NNW,345,2.0,6.0,50,0.00,,,0.00,,2013-04-06 04:53:00,
2013-04-06 01:02:00,39.0,22.0,29.98,NNW,345,2.0,6.0,50,0.00,,,0.00,,2013-04-06 05:02:00,
2013-04-06 01:13:00,39.0,22.0,29.98,NNW,345,2.0,6.0,50,0.00,,,0.00,,2013-04-06 05:13:00,
2013-04-06 01:23:00,38.0,20.0,30.00,North,353,2.0,5.0,48,0.00,,,0.00,,2013-04-06 05:23:00,
2013-04-06 01:33:00,37.0,20.0,30.00,North,353,1.0,3.0,49,0.00,,,0.00,,2013-04-06 05:33:00,
2013-04-06 01:43:00,37.0,20.0,30.00,North,353,1.0,3.0,49,0.00,,,0.00,,2013-04-06 05:43:00,
2013-04-06 01:52:00,37.0,20.0,30.01,North,353,1.0,4.0,49,0.00,,,0.00,,2013-04-06 05:52:00,
2013-04-06 02:03:00,37.0,20.0,30.01,North,353,0.0,4.0,49,0.00,,,0.00,,2013-04-06 06:03:00,
2013-04-06 02:12:00,37.0,20.0,30.01,North,353,0.0,4.0,49,0.00,,,0.00,,2013-04-06 06:12:00,
2013-04-06 02:22:00,36.0,19.0,30.01,North,353,2.0,4.0,50,0.00,,,0.00,,2013-04-06 06:22:00,
2013-04-06 02:32:00,36.0,19.0,30.02,NNW,340,1.0,7.0,49,0.00,,,0.00,,2013-04-06 06:32:00,
2013-04-06 02:42:00,36.0,19.0,30.02,NNW,340,1.0,7.0,49,0.00,,,0.00,,2013-04-06 06:42:00,
2013-04-06 02:53:00,36.0,19.0,30.03,North,0,1.0,6.0,49,0.00,,,0.00,,2013-04-06 06:53:00,
2013-04-06 03:03:00,36.0,19.0,30.03,North,354,0.0,5.0,49,0.00,,,0.00,,2013-04-06 07:03:00,
2013-04-06 03:12:00,36.0,19.0,30.03,North,354,0.0,5.0,49,0.00,,,0.00,,2013-04-06 07:12:00,
2013-04-06 03:22:00,36.0,19.0,30.03,North,354,0.0,4.0,49,0.00,,,0.00,,2013-04-06 07:22:00,
2013-04-06 03:33:00,36.0,19.0,30.04,North,354,0.0,5.0,50,0.00,,,0.00,,2013-04-06 07:33:00,
2013-04-06 03:43:00,36.0,19.0,30.04,North,354,0.0,5.0,50,0.00,,,0.00,,2013-04-06 07:43:00,
2013-04-06 03:53:00,36.0,20.0,30.04,North,354,0.0,2.0,51,0.00,,,0.00,,2013-04-06 07:53:00,
2013-04-06 04:02:00,35.0,22.0,30.06,North,351,2.0,8.0,58,0.00,,,0.00,,2013-04-06 08:02:00,
2013-04-06 04:13:00,35.0,22.0,30.06,North,351,2.0,8.0,58,0.00,,,0.00,,2013-04-06 08:13:00,
2013-04-06 04:22:00,35.0,23.0,30.07,North,357,6.0,12.0,60,0.00,,,0.00,,2013-04-06 08:22:00,
2013-04-06 04:32:00,35.0,22.0,30.09,North,349,3.0,12.0,59,0.00,,,0.00,,2013-04-06 08:32:00,
2013-04-06 04:42:00,35.0,22.0,30.09,North,349,3.0,12.0,59,0.00,,,0.00,,2013-04-06 08:42:00,
2013-04-06 04:52:00,35.0,22.0,30.09,North,349,3.0,12.0,59,0.00,,,0.00,,2013-04-06 08:52:00,
2013-04-06 05:02:00,35.0,20.0,30.11,North,0,0.0,8.0,53,0.00,,,0.00,,2013-04-06 09:02:00,
2013-04-06 05:12:00,35.0,20.0,30.11,North,0,0.0,8.0,53,0.00,,,0.00,,2013-04-06 09:12:00,
2013-04-06 05:22:00,34.0,17.0,30.12,NNW,338,1.0,9.0,49,0.00,,,0.00,,2013-04-06 09:22:00,
2013-04-06 05:33:00,34.0,16.0,30.13,NNW,342,2.0,7.0,47,0.00,,,0.00,,2013-04-06 09:33:00,
2013-04-06 05:43:00,34.0,16.0,30.13,NNW,342,2.0,7.0,47,0.00,,,0.00,,2013-04-06 09:43:00,
2013-04-06 05:53:00,34.0,16.0,30.13,NNW,342,2.0,7.0,47,0.00,,,0.00,,2013-04-06 09:53:00,
2013-04-06 06:03:00,34.0,16.0,30.13,NNW,342,2.0,7.0,47,0.00,,,0.00,,2013-04-06 10:03:00,
2013-04-06 06:13:00,34.0,16.0,30.13,NNW,342,2.0,7.0,47,0.00,,,0.00,,2013-04-06 10:13:00,
2013-04-06 06:30:00,32.0,12.0,30.16,NNW,345,5.0,15.0,43,0.00,,,0.00,,2013-04-06 10:30:00,
2013-04-06 06:54:00,32.0,12.0,30.16,NNW,345,5.0,15.0,43,0.00,,,0.00,,2013-04-06 10:54:00,
2013-04-06 07:03:00,32.0,12.0,30.16,NNW,345,5.0,15.0,43,0.00,,,0.00,,2013-04-06 11:03:00,
2013-04-06 07:13:00,32.0,12.0,30.16,NNW,345,5.0,15.0,43,0.00,,,0.00,,2013-04-06 11:13:00,
2013-04-06 07:23:00,32.0,12.0,30.16,NNW,345,5.0,15.0,43,0.00,,,0.00,,2013-04-06 11:23:00,
2013-04-06 08:02:00,33.0,10.0,30.21,NNW,347,5.0,17.0,37,0.00,,,0.00,,2013-04-06 12:02:00,
2013-04-06 08:13:00,33.0,10.0,30.21,NNW,347,5.0,17.0,37,0.00,,,0.00,,2013-04-06 12:13:00,
2013-04-06 08:22:00,33.0,10.0,30.21,NNW,347,5.0,17.0,37,0.00,,,0.00,,2013-04-06 12:22:00,
2013-04-06 08:33:00,33.0,10.0,30.21,NNW,347,5.0,17.0,37,0.00,,,0.00,,2013-04-06 12:33:00,
2013-04-06 08:43:00,33.0,10.0,30.21,NNW,347,5.0,17.0,37,0.00,,,0.00,,2013-04-06 12:43:00,
2013-04-06 09:33:00,37.0,4.0,30.24,North,356,5.0,16.0,25,0.00,,,0.00,,2013-04-06 13:33:00,
2013-04-06 09:43:00,37.0,4.0,30.24,North,356,5.0,16.0,25,0.00,,,0.00,,2013-04-06 13:43:00,
2013-04-06 09:54:00,37.0,3.0,30.24,North,359,4.0,14.0,23,0.00,,,0.00,,2013-04-06 13:54:00,
2013-04-06 10:05:00,37.0,3.0,30.24,North,359,4.0,14.0,23,0.00,,,0.00,,2013-04-06 14:05:00,
2013-04-06 10:12:00,39.0,6.0,30.25,North,2,6.0,10.0,25,0.00,,,0.00,,2013-04-06 14:12:00,
2013-04-06 10:22:00,39.0,6.0,30.25,North,2,6.0,10.0,25,0.00,,,0.00,,2013-04-06 14:22:00,
2013-04-06 10:33:00,39.0,6.0,30.25,NNW,346,4.0,11.0,25,0.00,,,0.00,,2013-04-06 14:33:00,
2013-04-06 10:43:00,39.0,6.0,30.25,NNW,346,4.0,11.0,25,0.00,,,0.00,,2013-04-06 14:43:00,
2013-04-06 10:53:00,39.0,5.0,30.26,NNW,348,5.0,12.0,24,0.00,,,0.00,,2013-04-06 14:53:00,
2013-04-06 11:02:00,40.0,6.0,30.26,North,11,4.0,13.0,24,0.00,,,0.00,,2013-04-06 15:02:00,
2013-04-06 11:12:00,40.0,6.0,30.26,North,11,4.0,13.0,24,0.00,,,0.00,,2013-04-06 15:12:00,
2013-04-06 11:23:00,41.0,5.0,30.26,North,352,5.0,11.0,22,0.00,,,0.00,,2013-04-06 15:23:00,
2013-04-06 11:33:00,42.0,7.0,30.26,North,0,3.0,9.0,23,0.00,,,0.00,,2013-04-06 15:33:00,
2013-04-06 11:43:00,42.0,7.0,30.26,North,0,3.0,9.0,23,0.00,,,0.00,,2013-04-06 15:43:00,
2013-04-06 11:53:00,42.0,7.0,30.26,North,0,3.0,9.0,23,0.00,,,0.00,,2013-04-06 15:53:00,
2013-04-06 12:05:00,43.0,8.0,30.26,NNW,344,1.0,11.0,23,0.00,,,0.00,,2013-04-06 16:05:00,
2013-04-06 12:17:00,43.0,8.0,30.26,NNW,344,1.0,11.0,23,0.00,,,0.00,,2013-04-06 16:17:00,
2013-04-06 12:23:00,44.0,9.0,30.25,ESE,119,4.0,12.0,23,0.00,,,0.00,,2013-04-06 16:23:00,
2013-04-06 12:33:00,44.0,9.0,30.25,ESE,119,4.0,12.0,23,0.00,,,0.00,,2013-04-06 16:33:00,
2013-04-06 12:42:00,44.0,9.0,30.25,ESE,119,4.0,12.0,23,0.00,,,0.00,,2013-04-06 16:42:00,
2013-04-06 12:53:00,43.0,8.0,30.25,NNW,335,5.0,13.0,23,0.00,,,0.00,,2013-04-06 16:53:00,
2013-04-06 13:03:00,42.0,7.0,30.25,North,9,4.0,13.0,23,0.00,,,0.00,,2013-04-06 17:03:00,
2013-04-06 13:13:00,42.0,7.0,30.25,North,9,4.0,13.0,23,0.00,,,0.00,,2013-04-06 17:13:00,
2013-04-06 13:22:00,42.0,7.0,30.25,North,9,4.0,13.0,23,0.00,,,0.00,,2013-04-06 17:22:00,
2013-04-06 13:32:00,42.0,7.0,30.25,North,9,4.0,13.0,23,0.00,,,0.00,,2013-04-06 17:32:00,
2013-04-06 13:42:00,42.0,7.0,30.25,North,9,4.0,13.0,23,0.00,,,0.00,,2013-04-06 17:42:00,
2013-04-06 13:53:00,44.0,9.0,30.24,North,0,1.0,9.0,23,0.00,,,0.00,,2013-04-06 17:53:00,
2013-04-06 14:03:00,44.0,9.0,30.24,SE,132,5.0,9.0,23,0.00,,,0.00,,2013-04-06 18:03:00,
2013-04-06 14:13:00,44.0,9.0,30.24,SE,132,5.0,9.0,23,0.00,,,0.00,,2013-04-06 18:13:00,
2013-04-06 14:23:00,44.0,9.0,30.24,SSE,147,3.0,10.0,23,0.00,,,0.00,,2013-04-06 18:23:00,
2013-04-06 14:32:00,44.0,9.0,30.24,East,100,2.0,9.0,23,0.00,,,0.00,,2013-04-06 18:32:00,
2013-04-06 14:42:00,44.0,9.0,30.24,East,100,2.0,9.0,23,0.00,,,0.00,,2013-04-06 18:42:00,
2013-04-06 14:52:00,45.0,9.0,30.24,SE,141,2.0,8.0,23,0.00,,,0.00,,2013-04-06 18:52:00,
2013-04-06 15:03:00,45.0,9.0,30.24,SE,141,2.0,8.0,23,0.00,,,0.00,,2013-04-06 19:03:00,
2013-04-06 15:12:00,45.0,9.0,30.24,SE,141,2.0,8.0,23,0.00,,,0.00,,2013-04-06 19:12:00,
2013-04-06 15:23:00,45.0,9.0,30.24,North,354,3.0,9.0,23,0.00,,,0.00,,2013-04-06 19:23:00,
2013-04-06 15:33:00,45.0,9.0,30.24,North,354,3.0,9.0,23,0.00,,,0.00,,2013-04-06 19:33:00,
2013-04-06 15:42:00,45.0,9.0,30.24,North,354,3.0,9.0,23,0.00,,,0.00,,2013-04-06 19:42:00,
2013-04-06 15:54:00,46.0,9.0,30.23,North,352,3.0,8.0,22,0.00,,,0.00,,2013-04-06 19:54:00,
2013-04-06 16:03:00,46.0,9.0,30.22,NNW,331,2.0,7.0,22,0.00,,,0.00,,2013-04-06 20:03:00,
2013-04-06 16:13:00,46.0,9.0,30.22,NNW,331,2.0,7.0,22,0.00,,,0.00,,2013-04-06 20:13:00,
2013-04-06 16:22:00,46.0,8.0,30.22,North,349,3.0,9.0,21,0.00,,,0.00,,2013-04-06 20:22:00,
2013-04-06 16:32:00,46.0,8.0,30.22,North,356,3.0,8.0,21,0.00,,,0.00,,2013-04-06 20:32:00,
2013-04-06 16:42:00,46.0,8.0,30.22,North,356,3.0,8.0,21,0.00,,,0.00,,2013-04-06 20:42:00,
2013-04-06 16:53:00,47.0,8.0,30.22,North,0,3.0,8.0,20,0.00,,,0.00,,2013-04-06 20:53:00,
2013-04-06 17:02:00,47.0,8.0,30.22,North,0,3.0,8.0,20,0.00,,,0.00,,2013-04-06 21:02:00,
2013-04-06 17:13:00,48.0,10.0,30.21,NNW,343,1.0,9.0,21,0.00,,,0.00,,2013-04-06 21:13:00,
2013-04-06 17:22:00,48.0,10.0,30.21,NNW,343,1.0,9.0,21,0.00,,,0.00,,2013-04-06 21:22:00,
2013-04-06 17:33:00,48.0,9.0,30.22,North,0,1.0,7.0,20,0.00,,,0.00,,2013-04-06 21:33:00,
2013-04-06 17:43:00,48.0,9.0,30.22,North,0,1.0,7.0,20,0.00,,,0.00,,2013-04-06 21:43:00,
2013-04-06 17:53:00,48.0,9.0,30.22,North,0,1.0,7.0,20,0.00,,,0.00,,2013-04-06 21:53:00,
2013-04-06 18:03:00,48.0,9.0,30.22,North,0,1.0,7.0,20,0.00,,,0.00,,2013-04-06 22:03:00,
2013-04-06 18:13:00,48.0,9.0,30.22,North,0,1.0,7.0,20,0.00,,,0.00,,2013-04-06 22:13:00,
2013-04-06 18:23:00,48.0,9.0,30.23,North,358,1.0,7.0,20,0.00,,,0.00,,2013-04-06 22:23:00,
2013-04-06 18:35:00,48.0,9.0,30.23,North,358,1.0,7.0,20,0.00,,,0.00,,2013-04-06 22:35:00,
2013-04-06 18:44:00,48.0,9.0,30.23,North,358,1.0,7.0,20,0.00,,,0.00,,2013-04-06 22:44:00,
2013-04-06 19:03:00,47.0,9.0,30.24,South,172,2.0,5.0,21,0.00,,,0.00,,2013-04-06 23:03:00,
2013-04-06 19:14:00,47.0,9.0,30.24,South,172,2.0,5.0,21,0.00,,,0.00,,2013-04-06 23:14:00,
2013-04-06 19:23:00,47.0,10.0,30.24,SSW,193,2.0,4.0,22,0.00,,,0.00,,2013-04-06 23:23:00,
2013-04-06 19:34:00,47.0,11.0,30.24,SSW,202,0.0,4.0,23,0.00,,,0.00,,2013-04-06 23:34:00,
2013-04-06 19:42:00,47.0,11.0,30.24,SSW,202,0.0,4.0,23,0.00,,,0.00,,2013-04-06 23:42:00,
2013-04-06 19:53:00,46.0,11.0,30.24,SSW,202,0.0,1.0,24,0.00,,,0.00,,2013-04-06 23:53:00,
2013-04-06 20:02:00,46.0,11.0,30.24,SSW,202,0.0,1.0,24,0.00,,,0.00,,2013-04-07 00:02:00,
2013-04-06 20:13:00,46.0,11.0,30.24,SSW,202,0.0,1.0,24,0.00,,,0.00,,2013-04-07 00:13:00,
2013-04-06 20:22:00,43.0,12.0,30.24,SSW,202,0.0,0.0,28,0.00,,,0.00,,2013-04-07 00:22:00,
2013-04-06 20:33:00,42.0,13.0,30.25,SSW,202,0.0,0.0,30,0.00,,,0.00,,2013-04-07 00:33:00,
2013-04-06 20:44:00,42.0,13.0,30.25,SSW,202,0.0,0.0,30,0.00,,,0.00,,2013-04-07 00:44:00,
2013-04-06 20:53:00,41.0,14.0,30.25,SSW,202,0.0,0.0,33,0.00,,,0.00,,2013-04-07 00:53:00,
2013-04-06 21:02:00,41.0,14.0,30.25,SSW,202,0.0,0.0,33,0.00,,,0.00,,2013-04-07 01:02:00,
2013-04-06 21:12:00,41.0,14.0,30.25,SSW,202,0.0,0.0,33,0.00,,,0.00,,2013-04-07 01:12:00,
2013-04-06 21:23:00,41.0,14.0,30.25,SSW,202,0.0,0.0,33,0.00,,,0.00,,2013-04-07 01:23:00,
2013-04-06 21:32:00,39.0,16.0,30.26,SSW,202,0.0,0.0,39,0.00,,,0.00,,2013-04-07 01:32:00,
2013-04-06 21:43:00,39.0,16.0,30.26,SSW,202,0.0,0.0,39,0.00,,,0.00,,2013-04-07 01:43:00,
2013-04-06 21:53:00,38.0,15.0,30.26,SSW,202,0.0,0.0,39,0.00,,,0.00,,2013-04-07 01:53:00,
2013-04-06 22:03:00,38.0,16.0,30.26,SSW,202,0.0,0.0,40,0.00,,,0.00,,2013-04-07 02:03:00,
2013-04-06 22:12:00,38.0,16.0,30.26,SSW,202,0.0,0.0,40,0.00,,,0.00,,2013-04-07 02:12:00,
2013-04-06 22:23:00,37.0,16.0,30.26,SSW,202,0.0,0.0,42,0.00,,,0.00,,2013-04-07 02:23:00,
2013-04-06 22:33:00,37.0,17.0,30.26,SSW,202,0.0,2.0,44,0.00,,,0.00,,2013-04-07 02:33:00,
2013-04-06 22:43:00,37.0,17.0,30.26,SSW,202,0.0,2.0,44,0.00,,,0.00,,2013-04-07 02:43:00,
2013-04-06 22:52:00,36.0,17.0,30.26,SSW,202,0.0,2.0,45,0.00,,,0.00,,2013-04-07 02:52:00,
2013-04-06 23:02:00,36.0,18.0,30.26,SSW,202,0.0,1.0,47,0.00,,,0.00,,2013-04-07 03:02:00,
2013-04-06 23:12:00,36.0,18.0,30.26,SSW,202,0.0,1.0,47,0.00,,,0.00,,2013-04-07 03:12:00,
2013-04-06 23:22:00,36.0,18.0,30.26,SSW,202,0.0,1.0,47,0.00,,,0.00,,2013-04-07 03:22:00,
2013-04-06 23:35:00,36.0,18.0,30.26,SSW,202,0.0,1.0,47,0.00,,,0.00,,2013-04-07 03:35:00,
2013-04-06 23:43:00,36.0,18.0,30.26,SSW,202,0.0,1.0,47,0.00,,,0.00,,2013-04-07 03:43:00,
2013-04-06 23:55:00,35.0,18.0,30.25,SSW,202,0.0,1.0,49,0.00,,,0.00,,2013-04-07 03:55:00,